Gwynneville, Indiana
Current Conditions -  °F | °C
As of 10:53 AM on Monday 24 Nov 2014 (Local Time) from KGEZ Reporting Station
Overcast Overcast  
Wind Chill: 37°   Ceiling: 2300
Heat Index: 46°   Visibility: 10mi
Dew Point: 37°   Wind: 26mph
Humidity: 71%   Direction: 240°WSW
Pressure: 29.46"   Gusts: 39mph
Location:  39.66°N, 85.65°W
Report Text: KGEZ 241553Z AUTO 24023G34KT 10SM FEW014 OVC023 08/03 A2946 RMK AO2 PK WND 24037/1536 PRESRR SLP975 T00780028
Loading
Personal Weather Stations






























Interactive Weather Map New forecast layout! Learn more

10-Day Weather Forecast

Advertisements
Track Severe Weather on mobile